American Lake, Washington
Current Conditions -  °F | °C
As of 3:58 PM on Friday 28 Nov 2014 (Local Time) from KGRF Reporting Station
Haze Haze  
Wind Chill: 35°   Ceiling: 800
Heat Index: 41°   Visibility: 2.5mi
Dew Point: 41°   Wind: 9mph
Humidity: 99%   Direction: 10°N
Pressure: 29.48"   Gusts: NA
Location:  47.1451°N, 122.578°W
Report Text: KGRF 282358Z AUTO 01008KT 2 1/2SM UP BR OVC008 05/05 A2948 RMK AO2 VIS 1 3/4V2 1/2 UPB2307RAE2307B2344E2354 CIG 008V011 SLP987 P0004 60057 T00500049 10134 20050 53005 $
Loading
Personal Weather Stations






























Interactive Weather Map New forecast layout! Learn more

10-Day Weather Forecast

Advertisements
Track Severe Weather on mobile